Time;durP1;ratioP1;P1;durP2;ratioP2;P2;SDS_P1;SDS_P2;PMS_P1;PMS_P2;Temp;Humidity;BMP_temperature;BMP_pressure;BME280_temperature;BME280_humidity;BME280_pressure;Samples;Min_cycle;Max_cycle;Signal;HPM_P1;HPM_P2
2021/10/14 00:00:51;;;;;;;16.88;10.27;;;11.10;99.90;;;;;;4113302;28;20097;-77
2021/10/14 00:02:52;;;;;;;17.90;10.80;;;11.10;99.90;;;;;;4114356;28;20042;-77
2021/10/14 00:04:53;;;;;;;19.67;11.77;;;11.10;99.90;;;;;;4098646;28;20046;-78
2021/10/14 00:06:54;;;;;;;24.52;14.25;;;11.20;99.90;;;;;;4125656;28;20042;-77
2021/10/14 00:08:54;;;;;;;17.17;12.10;;;11.10;99.90;;;;;;4111883;28;20429;-77
2021/10/14 00:10:55;;;;;;;14.10;12.18;;;11.10;99.90;;;;;;4097899;28;20130;-76
2021/10/14 00:12:57;;;;;;;19.73;12.52;;;11.10;99.90;;;;;;4097816;28;20046;-77
2021/10/14 00:14:58;;;;;;;16.88;12.40;;;11.10;99.90;;;;;;4114033;28;20051;-77
2021/10/14 00:16:59;;;;;;;19.08;12.40;;;11.10;99.90;;;;;;4109345;28;20054;-77
2021/10/14 00:19:00;;;;;;;22.25;12.23;;;11.10;99.90;;;;;;4113741;28;20131;-78
2021/10/14 00:21:01;;;;;;;22.42;13.23;;;11.10;99.90;;;;;;4095201;28;20048;-78
2021/10/14 00:23:02;;;;;;;24.10;13.35;;;11.10;99.90;;;;;;4123597;28;20046;-78
2021/10/14 00:25:03;;;;;;;24.40;14.32;;;11.10;99.90;;;;;;4111800;28;20042;-77
2021/10/14 00:27:04;;;;;;;23.92;13.90;;;11.20;99.90;;;;;;4123409;28;20525;-77
2021/10/14 00:29:05;;;;;;;19.58;12.38;;;11.20;99.90;;;;;;4110141;28;20062;-76
2021/10/14 00:31:06;;;;;;;20.00;14.02;;;11.20;99.90;;;;;;4108898;28;20078;-77
2021/10/14 00:33:07;;;;;;;26.70;14.75;;;11.20;99.90;;;;;;4098889;28;20227;-77
2021/10/14 00:35:08;;;;;;;20.90;14.18;;;11.20;99.90;;;;;;4112163;28;20053;-78
2021/10/14 00:37:09;;;;;;;20.88;12.60;;;11.20;99.90;;;;;;4109291;28;20035;-77
2021/10/14 00:39:09;;;;;;;23.40;13.52;;;11.20;99.90;;;;;;4127828;28;20126;-78
2021/10/14 00:41:10;;;;;;;20.75;13.15;;;11.20;99.90;;;;;;4107083;28;20046;-77
2021/10/14 00:43:11;;;;;;;23.95;16.10;;;11.10;99.90;;;;;;4136539;28;20046;-77
2021/10/14 00:45:13;;;;;;;26.38;15.38;;;11.10;99.90;;;;;;4120857;28;20046;-77
2021/10/14 00:47:19;;;;;;;28.57;15.47;;;11.20;99.90;;;;;;4096329;28;20058;-77
2021/10/14 00:49:20;;;;;;;27.85;13.55;;;11.10;99.90;;;;;;4111671;28;20514;-77
2021/10/14 00:51:21;;;;;;;26.23;12.77;;;11.10;99.90;;;;;;4112217;28;20058;-76
2021/10/14 00:53:22;;;;;;;25.80;12.55;;;11.20;99.90;;;;;;4125729;28;20057;-77
2021/10/14 00:55:24;;;;;;;22.02;14.48;;;11.30;99.90;;;;;;4095658;28;20055;-77
2021/10/14 00:57:26;;;;;;;21.58;14.30;;;11.30;99.90;;;;;;4097952;28;20043;-78
2021/10/14 00:59:29;;;;;;;19.60;13.50;;;11.30;99.90;;;;;;4100207;28;20050;-78
2021/10/14 01:01:30;;;;;;;19.75;13.82;;;11.30;99.90;;;;;;4095570;28;20043;-78
2021/10/14 01:03:32;;;;;;;25.77;13.90;;;11.40;99.90;;;;;;4106807;28;20041;-78
2021/10/14 01:05:33;;;;;;;24.83;14.40;;;11.30;99.90;;;;;;4112348;28;20039;-77
2021/10/14 01:07:34;;;;;;;21.50;14.85;;;11.30;99.90;;;;;;4111279;28;20039;-76
2021/10/14 01:09:35;;;;;;;23.00;13.52;;;11.40;99.90;;;;;;4114793;28;20477;-76
2021/10/14 01:11:35;;;;;;;22.38;13.85;;;11.40;99.90;;;;;;4127220;28;20058;-76
2021/10/14 01:13:36;;;;;;;23.05;13.90;;;11.40;99.90;;;;;;4124255;28;20116;-76
2021/10/14 01:15:37;;;;;;;23.08;14.60;;;11.30;99.90;;;;;;4095815;28;20047;-77
2021/10/14 01:17:38;;;;;;;27.25;15.27;;;11.40;99.90;;;;;;4095679;28;20039;-78
2021/10/14 01:19:42;;;;;;;25.25;15.88;;;11.40;99.90;;;;;;4123992;28;20158;-77
2021/10/14 01:21:43;;;;;;;36.35;15.55;;;11.40;99.90;;;;;;4098697;28;20035;-76
2021/10/14 01:23:44;;;;;;;25.48;15.40;;;11.40;99.90;;;;;;4112744;28;20089;-76
2021/10/14 01:25:46;;;;;;;24.08;15.82;;;11.40;99.90;;;;;;4105153;28;20036;-77
2021/10/14 01:27:50;;;;;;;24.88;16.08;;;11.50;99.90;;;;;;4118049;28;20113;-77
2021/10/14 01:29:51;;;;;;;28.85;18.48;;;11.50;99.90;;;;;;4120355;28;20027;-77
2021/10/14 01:31:53;;;;;;;33.38;19.52;;;11.40;99.90;;;;;;4120013;28;20058;-77
2021/10/14 01:33:55;;;;;;;25.27;17.77;;;11.40;99.90;;;;;;4128770;28;20114;-77
2021/10/14 01:35:57;;;;;;;25.48;16.95;;;11.40;99.90;;;;;;4117336;28;20026;-77
2021/10/14 01:37:57;;;;;;;38.55;19.02;;;11.40;99.90;;;;;;4104308;28;20062;-77
2021/10/14 01:39:59;;;;;;;31.90;18.30;;;11.40;99.90;;;;;;4123050;28;20406;-77
2021/10/14 01:42:00;;;;;;;27.38;18.38;;;11.40;99.90;;;;;;4113787;28;20061;-77
2021/10/14 01:44:01;;;;;;;29.10;18.75;;;11.50;99.90;;;;;;4111457;28;20042;-77
2021/10/14 01:46:02;;;;;;;31.25;19.75;;;11.50;99.90;;;;;;4100662;28;21877;-77
2021/10/14 01:48:03;;;;;;;34.35;20.80;;;11.50;99.90;;;;;;4110671;28;20063;-76
2021/10/14 01:50:06;;;;;;;33.05;21.27;;;11.50;99.90;;;;;;4092972;28;20502;-76
2021/10/14 01:52:07;;;;;;;33.55;22.30;;;11.40;99.90;;;;;;4114465;28;20161;-77
2021/10/14 01:54:08;;;;;;;35.80;22.05;;;11.50;99.90;;;;;;4098997;28;20035;-76
2021/10/14 01:56:09;;;;;;;32.92;23.10;;;11.40;99.90;;;;;;4126509;28;20042;-77
2021/10/14 01:58:10;;;;;;;38.53;24.33;;;11.40;99.90;;;;;;4114705;28;20370;-77
2021/10/14 02:00:11;;;;;;;42.72;24.52;;;11.50;99.90;;;;;;4126842;28;20553;-77
2021/10/14 02:02:12;;;;;;;39.55;24.95;;;11.50;99.90;;;;;;4113090;28;20038;-77
2021/10/14 02:04:13;;;;;;;37.97;22.98;;;11.50;99.90;;;;;;4113786;28;20094;-77
2021/10/14 02:06:14;;;;;;;45.28;24.42;;;11.60;99.90;;;;;;4116606;28;20114;-77
2021/10/14 02:08:15;;;;;;;44.13;26.75;;;11.60;99.90;;;;;;4110019;28;20086;-77
2021/10/14 02:10:16;;;;;;;39.13;26.45;;;11.60;99.90;;;;;;4103883;28;20046;-77
2021/10/14 02:12:16;;;;;;;50.65;27.30;;;11.60;99.90;;;;;;4110935;28;20039;-77
2021/10/14 02:14:17;;;;;;;50.33;28.55;;;11.50;99.90;;;;;;4099736;28;20042;-76
2021/10/14 02:16:18;;;;;;;49.58;27.77;;;11.60;99.90;;;;;;4130020;28;20116;-78
2021/10/14 02:18:19;;;;;;;56.33;29.67;;;11.60;99.90;;;;;;4108316;28;20148;-77
2021/10/14 02:20:20;;;;;;;45.17;28.30;;;11.60;99.90;;;;;;4111361;28;20031;-77
2021/10/14 02:22:20;;;;;;;45.17;28.45;;;11.60;99.90;;;;;;4115834;28;20268;-76
2021/10/14 02:24:21;;;;;;;59.38;31.05;;;11.60;99.90;;;;;;4126701;28;20169;-77
2021/10/14 02:26:22;;;;;;;61.33;32.90;;;11.60;99.90;;;;;;4115967;28;20098;-77
2021/10/14 02:28:23;;;;;;;52.80;30.45;;;11.60;99.90;;;;;;4111861;28;20086;-77
2021/10/14 02:30:24;;;;;;;57.50;31.88;;;11.60;99.90;;;;;;4108350;28;20042;-77
2021/10/14 02:32:25;;;;;;;55.20;30.92;;;11.60;99.90;;;;;;4115367;28;20038;-77
2021/10/14 02:34:25;;;;;;;66.03;34.72;;;11.60;99.90;;;;;;4097927;28;20043;-77
2021/10/14 02:36:26;;;;;;;61.25;33.85;;;11.60;99.90;;;;;;4126763;28;20037;-77
2021/10/14 02:38:27;;;;;;;56.67;31.83;;;11.60;99.90;;;;;;4113022;28;20042;-77
2021/10/14 02:40:27;;;;;;;57.13;31.88;;;11.60;99.90;;;;;;4097725;28;20046;-77
2021/10/14 02:42:28;;;;;;;54.00;31.65;;;11.60;99.90;;;;;;4115246;28;20558;-77
2021/10/14 02:44:29;;;;;;;53.92;31.70;;;11.70;99.90;;;;;;4100179;28;20603;-76
2021/10/14 02:46:30;;;;;;;53.75;31.85;;;11.70;99.90;;;;;;4126430;28;20173;-76
2021/10/14 02:48:31;;;;;;;62.30;34.25;;;11.70;99.90;;;;;;4098399;28;20035;-76
2021/10/14 02:50:31;;;;;;;60.85;33.80;;;11.70;99.90;;;;;;4124319;28;20089;-76
2021/10/14 02:52:32;;;;;;;58.00;32.80;;;11.70;99.90;;;;;;4110329;28;20038;-76
2021/10/14 02:54:33;;;;;;;57.45;32.40;;;11.70;99.90;;;;;;4114569;28;20098;-77
2021/10/14 02:56:34;;;;;;;59.33;32.40;;;11.60;99.90;;;;;;4112334;28;20064;-77
2021/10/14 02:58:35;;;;;;;55.25;31.10;;;11.60;99.90;;;;;;4128826;28;20047;-77
2021/10/14 03:00:36;;;;;;;59.25;33.80;;;11.60;99.90;;;;;;4101627;28;20031;-77
2021/10/14 03:02:37;;;;;;;63.58;34.65;;;11.50;99.90;;;;;;4116035;28;20046;-77
2021/10/14 03:04:39;;;;;;;62.17;32.55;;;11.50;99.90;;;;;;4114570;28;20035;-77
2021/10/14 03:06:39;;;;;;;60.92;31.67;;;11.50;99.90;;;;;;4109781;28;20093;-78
2021/10/14 03:08:40;;;;;;;60.30;31.88;;;11.50;99.90;;;;;;4113082;28;20430;-78
2021/10/14 03:10:41;;;;;;;64.22;34.03;;;11.50;99.90;;;;;;4126702;28;20148;-77
2021/10/14 03:12:42;;;;;;;76.55;35.10;;;11.50;99.90;;;;;;4113960;28;20063;-77
2021/10/14 03:14:43;;;;;;;67.20;36.72;;;11.40;99.90;;;;;;4110873;28;20062;-77
2021/10/14 03:16:43;;;;;;;69.20;33.97;;;11.30;99.90;;;;;;4098058;28;20043;-77
2021/10/14 03:18:44;;;;;;;66.03;35.35;;;11.40;99.90;;;;;;4120689;28;20085;-78
2021/10/14 03:20:45;;;;;;;66.18;34.80;;;11.40;99.90;;;;;;4106566;28;20089;-77
2021/10/14 03:22:46;;;;;;;67.30;35.08;;;11.40;99.90;;;;;;4111079;28;20042;-78
2021/10/14 03:24:46;;;;;;;73.53;35.45;;;11.40;99.90;;;;;;4116202;28;20047;-77
2021/10/14 03:26:47;;;;;;;65.45;33.72;;;11.30;99.90;;;;;;4111220;28;20121;-77
2021/10/14 03:28:50;;;;;;;67.60;34.13;;;11.30;99.90;;;;;;4114802;28;20039;-78
2021/10/14 03:30:51;;;;;;;58.90;31.60;;;11.40;99.90;;;;;;4102021;28;20043;-78
2021/10/14 03:32:51;;;;;;;70.38;32.53;;;11.40;99.90;;;;;;4109428;28;20043;-77
2021/10/14 03:34:52;;;;;;;73.90;34.20;;;11.50;99.90;;;;;;4097132;28;20141;-77
2021/10/14 03:36:53;;;;;;;68.50;34.60;;;11.40;99.90;;;;;;4120726;28;20043;-78
2021/10/14 03:38:54;;;;;;;62.00;33.78;;;11.40;99.90;;;;;;4097366;28;20043;-77
2021/10/14 03:40:54;;;;;;;63.25;31.98;;;11.30;99.90;;;;;;4111525;28;20529;-77
2021/10/14 03:42:55;;;;;;;63.95;35.70;;;11.30;99.90;;;;;;4129588;28;20507;-78
2021/10/14 03:44:56;;;;;;;60.05;35.67;;;11.30;99.90;;;;;;4130071;28;20053;-77
2021/10/14 03:46:57;;;;;;;64.72;34.67;;;11.30;99.90;;;;;;4113246;28;20424;-78
2021/10/14 03:48:58;;;;;;;68.32;35.75;;;11.20;99.90;;;;;;4114220;28;20607;-78
2021/10/14 03:50:59;;;;;;;66.65;35.88;;;11.20;99.90;;;;;;4111739;28;20121;-77
2021/10/14 03:53:00;;;;;;;66.05;34.75;;;11.30;99.90;;;;;;4112311;28;20039;-78
2021/10/14 03:55:01;;;;;;;60.25;31.88;;;11.40;99.90;;;;;;4125729;28;20030;-76
2021/10/14 03:57:02;;;;;;;65.72;35.97;;;11.40;99.90;;;;;;4100546;28;20047;-76
2021/10/14 03:59:02;;;;;;;63.60;34.67;;;11.40;99.90;;;;;;4113073;28;20055;-76
2021/10/14 04:01:03;;;;;;;58.53;34.60;;;11.30;99.90;;;;;;4120803;28;20487;-77
2021/10/14 04:03:04;;;;;;;66.95;35.65;;;11.40;99.90;;;;;;4101574;28;20031;-77
2021/10/14 04:05:06;;;;;;;60.58;30.65;;;11.40;99.90;;;;;;4098705;28;20043;-77
2021/10/14 04:07:06;;;;;;;70.47;35.03;;;11.40;99.90;;;;;;4111404;28;20027;-77
2021/10/14 04:09:07;;;;;;;55.45;32.90;;;11.50;99.90;;;;;;4108979;28;20058;-77
2021/10/14 04:11:08;;;;;;;60.45;34.85;;;11.50;99.90;;;;;;4113338;28;20038;-77
2021/10/14 04:13:09;;;;;;;60.92;32.92;;;11.50;99.90;;;;;;4111271;28;20042;-77
2021/10/14 04:15:10;;;;;;;59.60;33.13;;;11.50;99.90;;;;;;4109190;28;20049;-77
2021/10/14 04:17:11;;;;;;;64.05;32.80;;;11.50;99.90;;;;;;4110439;28;20101;-77
2021/10/14 04:19:12;;;;;;;60.25;35.15;;;11.50;99.90;;;;;;4113840;28;20026;-77
2021/10/14 04:21:13;;;;;;;67.38;35.72;;;11.50;99.90;;;;;;4112093;28;20042;-77
2021/10/14 04:23:16;;;;;;;55.83;34.97;;;11.50;99.90;;;;;;4098175;28;20051;-77
2021/10/14 04:25:17;;;;;;;68.68;35.83;;;11.50;99.90;;;;;;4111598;28;20039;-77
2021/10/14 04:27:18;;;;;;;65.60;38.55;;;11.50;99.90;;;;;;4109455;28;20371;-78
2021/10/14 04:29:19;;;;;;;72.72;36.45;;;11.50;99.90;;;;;;4114321;28;20035;-78
2021/10/14 04:31:20;;;;;;;63.10;35.50;;;11.60;99.90;;;;;;4113284;28;20054;-78
2021/10/14 04:33:21;;;;;;;62.75;37.58;;;11.60;99.90;;;;;;4112855;28;20129;-78
2021/10/14 04:35:22;;;;;;;66.75;36.53;;;11.60;99.90;;;;;;4112063;28;20046;-78
2021/10/14 04:37:23;;;;;;;71.22;39.10;;;11.60;99.90;;;;;;4112839;28;20034;-76
2021/10/14 04:39:24;;;;;;;63.13;35.33;;;11.60;99.90;;;;;;4111001;28;20050;-76
2021/10/14 04:41:25;;;;;;;66.90;38.28;;;11.70;99.90;;;;;;4113862;28;20362;-77
2021/10/14 04:43:26;;;;;;;67.88;38.42;;;11.70;99.90;;;;;;4124659;28;20133;-76
2021/10/14 04:45:27;;;;;;;67.88;40.17;;;11.70;99.90;;;;;;4096179;28;20463;-77
2021/10/14 04:47:28;;;;;;;69.40;40.33;;;11.60;99.90;;;;;;4112444;28;20053;-77
2021/10/14 04:49:29;;;;;;;76.60;40.67;;;11.60;99.90;;;;;;4114222;28;20050;-78
2021/10/14 04:51:29;;;;;;;74.80;41.10;;;11.50;99.90;;;;;;4096549;28;20088;-79
2021/10/14 04:53:30;;;;;;;76.65;40.17;;;11.50;99.90;;;;;;4108989;28;20488;-77
2021/10/14 04:55:31;;;;;;;68.72;38.13;;;11.50;99.90;;;;;;4090751;28;20040;-77
2021/10/14 04:57:32;;;;;;;81.93;40.30;;;;;;;;;;4088778;28;20184;-77
2021/10/14 04:59:34;;;;;;;69.57;41.22;;;;;;;;;;4119852;28;20049;-77
2021/10/14 05:01:35;;;;;;;71.13;39.60;;;11.60;99.90;;;;;;4111136;28;20176;-77
2021/10/14 05:03:36;;;;;;;71.15;40.00;;;11.50;99.90;;;;;;4101392;28;20050;-77
2021/10/14 05:05:37;;;;;;;78.07;39.45;;;11.50;99.90;;;;;;4089428;28;20110;-77
2021/10/14 05:07:38;;;;;;;71.20;42.63;;;11.50;99.90;;;;;;4111768;28;20064;-77
2021/10/14 05:09:39;;;;;;;84.25;42.63;;;11.50;99.90;;;;;;4098676;28;20046;-77
2021/10/14 05:11:42;;;;;;;78.40;42.88;;;11.60;99.90;;;;;;4099587;28;20487;-78
2021/10/14 05:13:43;;;;;;;72.00;39.25;;;11.60;99.90;;;;;;4098760;28;20035;-77
2021/10/14 05:15:44;;;;;;;82.68;42.00;;;11.60;99.90;;;;;;4098377;28;20424;-77
2021/10/14 05:17:45;;;;;;;77.85;42.88;;;11.60;99.90;;;;;;4113077;28;20101;-76
2021/10/14 05:19:46;;;;;;;84.10;43.70;;;11.60;99.90;;;;;;4098429;28;20039;-78
2021/10/14 05:21:47;;;;;;;81.20;43.97;;;11.60;99.90;;;;;;4113243;28;20055;-77
2021/10/14 05:23:48;;;;;;;77.22;42.30;;;11.60;99.90;;;;;;4067827;28;20043;-76
2021/10/14 05:25:48;;;;;;;81.55;44.58;;;11.60;99.90;;;;;;4080055;28;20488;-77
2021/10/14 05:27:49;;;;;;;85.10;43.17;;;11.70;99.90;;;;;;4114094;28;20031;-77
2021/10/14 05:29:50;;;;;;;76.40;40.47;;;11.70;99.90;;;;;;4098104;28;20076;-76
2021/10/14 05:31:51;;;;;;;76.68;40.83;;;11.70;99.90;;;;;;4127748;28;21506;-76
2021/10/14 05:33:54;;;;;;;90.45;44.28;;;11.70;99.90;;;;;;4098910;28;20165;-76
2021/10/14 05:35:54;;;;;;;79.72;44.03;;;11.70;99.90;;;;;;4096490;28;20043;-76
2021/10/14 05:37:55;;;;;;;79.20;46.08;;;11.70;99.90;;;;;;4105881;28;20395;-76
2021/10/14 05:39:56;;;;;;;89.13;47.25;;;11.60;99.90;;;;;;4114696;28;20486;-77
2021/10/14 05:41:57;;;;;;;84.93;45.10;;;11.60;99.90;;;;;;4106047;28;20081;-77
2021/10/14 05:43:58;;;;;;;89.07;48.17;;;11.70;99.90;;;;;;4090025;28;20035;-76
2021/10/14 05:45:59;;;;;;;86.00;47.80;;;11.70;99.90;;;;;;4119504;28;20050;-76
2021/10/14 05:48:00;;;;;;;102.13;49.63;;;11.70;99.90;;;;;;4100849;28;20041;-76
2021/10/14 05:50:01;;;;;;;102.82;50.38;;;11.70;99.90;;;;;;4111802;28;20062;-76
2021/10/14 05:52:02;;;;;;;92.82;45.95;;;11.70;99.90;;;;;;4113692;28;20035;-75
2021/10/14 05:54:03;;;;;;;98.43;50.50;;;11.80;99.90;;;;;;4098367;28;20119;-76
2021/10/14 05:56:04;;;;;;;98.57;49.83;;;11.80;99.90;;;;;;4100608;28;20054;-76
2021/10/14 05:58:04;;;;;;;90.20;48.72;;;11.80;99.90;;;;;;4097473;28;20035;-77
2021/10/14 06:00:06;;;;;;;91.72;49.90;;;11.80;99.90;;;;;;4082227;28;20395;-77
2021/10/14 06:02:07;;;;;;;87.75;48.10;;;11.80;99.90;;;;;;4098679;28;20058;-76
2021/10/14 06:04:08;;;;;;;92.95;46.50;;;11.80;99.90;;;;;;4111657;28;20077;-76
2021/10/14 06:06:09;;;;;;;97.70;49.70;;;11.80;99.90;;;;;;4098112;28;20491;-76
2021/10/14 06:08:09;;;;;;;91.10;48.17;;;11.80;99.90;;;;;;4082278;28;20036;-77
2021/10/14 06:10:10;;;;;;;91.70;49.42;;;11.90;99.90;;;;;;4078400;28;20159;-77
2021/10/14 06:12:13;;;;;;;94.65;48.00;;;11.90;99.90;;;;;;4099810;28;20042;-76
2021/10/14 06:14:15;;;;;;;89.90;49.10;;;12.00;99.90;;;;;;4113463;28;20041;-75
2021/10/14 06:16:15;;;;;;;106.90;50.67;;;11.90;99.90;;;;;;4096408;28;20043;-77
2021/10/14 06:18:16;;;;;;;99.13;49.83;;;11.90;99.90;;;;;;4081818;29;20048;-76
2021/10/14 06:20:17;;;;;;;99.80;51.58;;;11.90;99.90;;;;;;4095697;28;20040;-76
2021/10/14 06:22:18;;;;;;;104.30;51.65;;;11.90;99.90;;;;;;4098689;28;20055;-78
2021/10/14 06:24:19;;;;;;;108.15;52.65;;;12.00;99.90;;;;;;4129315;28;20026;-76
2021/10/14 06:26:20;;;;;;;97.05;50.20;;;11.90;99.90;;;;;;4097312;28;20093;-78
2021/10/14 06:28:21;;;;;;;102.50;53.00;;;11.90;99.90;;;;;;4097400;28;20083;-78
2021/10/14 06:30:22;;;;;;;104.78;50.90;;;12.00;99.90;;;;;;4129218;28;20037;-77
2021/10/14 06:32:22;;;;;;;102.47;54.03;;;11.90;99.90;;;;;;4096409;28;20027;-77
2021/10/14 06:34:23;;;;;;;104.60;52.88;;;12.00;99.90;;;;;;4099493;28;20063;-77
2021/10/14 06:36:25;;;;;;;104.65;53.60;;;12.00;99.90;;;;;;4094714;28;20039;-78
2021/10/14 06:38:25;;;;;;;99.45;50.78;;;12.10;99.90;;;;;;4098754;28;20038;-77
2021/10/14 06:40:26;;;;;;;105.82;54.35;;;12.10;99.90;;;;;;4112383;28;20423;-76
2021/10/14 06:42:27;;;;;;;99.60;49.78;;;12.10;99.90;;;;;;4081873;28;20043;-77
2021/10/14 06:44:28;;;;;;;106.78;51.80;;;12.10;99.90;;;;;;4096161;28;20035;-76
2021/10/14 06:46:28;;;;;;;102.68;55.20;;;12.10;99.90;;;;;;4109055;28;20035;-77
2021/10/14 06:48:29;;;;;;;114.32;52.03;;;12.10;99.90;;;;;;4096213;28;20491;-78
2021/10/14 06:50:30;;;;;;;110.15;54.33;;;12.10;99.90;;;;;;4103315;28;20387;-76
2021/10/14 06:52:32;;;;;;;96.78;52.22;;;12.10;99.90;;;;;;4110906;28;20035;-77
2021/10/14 06:54:33;;;;;;;112.72;54.88;;;12.10;99.90;;;;;;4126942;28;20483;-76
2021/10/14 06:56:34;;;;;;;99.72;50.08;;;12.10;99.90;;;;;;4113009;28;20034;-76
2021/10/14 06:58:34;;;;;;;107.90;52.80;;;12.20;99.90;;;;;;4105056;28;20045;-76
2021/10/14 07:00:35;;;;;;;103.03;51.92;;;12.20;99.90;;;;;;4107080;28;20039;-76
2021/10/14 07:02:36;;;;;;;100.63;51.58;;;12.10;99.90;;;;;;4123144;28;20045;-76
2021/10/14 07:04:37;;;;;;;112.20;55.63;;;12.20;99.90;;;;;;4109991;28;20038;-77
2021/10/14 07:06:38;;;;;;;112.45;52.60;;;12.20;99.90;;;;;;4096757;28;20126;-76
2021/10/14 07:08:39;;;;;;;101.00;52.15;;;12.30;99.90;;;;;;4113171;28;20043;-76
2021/10/14 07:10:44;;;;;;;95.32;52.55;;;12.30;99.90;;;;;;4128607;28;20153;-77
2021/10/14 07:12:46;;;;;;;105.35;51.92;;;12.30;99.90;;;;;;4111919;28;20534;-77
2021/10/14 07:14:46;;;;;;;104.22;49.45;;;12.40;99.90;;;;;;4114089;28;20046;-77
2021/10/14 07:16:48;;;;;;;106.13;55.25;;;12.40;99.90;;;;;;4113307;28;20133;-77
2021/10/14 07:18:49;;;;;;;102.35;51.42;;;12.30;99.90;;;;;;4128983;28;20057;-76
2021/10/14 07:20:50;;;;;;;99.20;53.33;;;12.30;99.90;;;;;;4098450;28;20040;-77
2021/10/14 07:22:51;;;;;;;89.72;50.55;;;12.30;99.90;;;;;;4128740;28;20080;-77
2021/10/14 07:24:52;;;;;;;99.85;51.05;;;12.40;99.90;;;;;;4115602;28;20093;-77
2021/10/14 07:26:53;;;;;;;95.32;50.10;;;12.40;99.90;;;;;;4099038;28;20032;-77
2021/10/14 07:28:54;;;;;;;86.20;51.17;;;12.40;99.90;;;;;;4114033;28;20047;-76
2021/10/14 07:30:55;;;;;;;90.22;50.28;;;12.40;99.90;;;;;;4118282;28;20390;-77
2021/10/14 07:32:57;;;;;;;94.53;50.85;;;12.50;99.90;;;;;;4130074;28;20026;-77
2021/10/14 07:34:58;;;;;;;86.88;49.03;;;12.50;99.90;;;;;;4114708;28;20516;-78
2021/10/14 07:36:58;;;;;;;81.35;48.55;;;12.50;99.90;;;;;;4112513;28;20050;-77
2021/10/14 07:39:01;;;;;;;83.35;47.90;;;12.50;99.90;;;;;;4127113;28;20049;-78
2021/10/14 07:41:02;;;;;;;83.85;47.45;;;12.60;99.90;;;;;;4112510;28;20050;-76
2021/10/14 07:43:03;;;;;;;77.97;47.13;;;12.70;99.90;;;;;;4127312;28;20414;-77
2021/10/14 07:45:05;;;;;;;72.10;47.00;;;12.70;99.90;;;;;;4096046;28;20078;-76
2021/10/14 07:47:06;;;;;;;79.80;46.70;;;12.70;99.90;;;;;;4101373;28;20118;-77
2021/10/14 07:49:07;;;;;;;76.97;48.90;;;12.70;99.90;;;;;;4123246;28;20474;-77
2021/10/14 07:51:08;;;;;;;78.18;49.00;;;12.70;99.90;;;;;;4128811;28;20045;-77
2021/10/14 07:53:11;;;;;;;77.50;48.15;;;12.70;99.90;;;;;;4110648;28;20049;-78
2021/10/14 07:55:13;;;;;;;71.53;44.60;;;12.80;99.90;;;;;;4128622;28;20038;-77
2021/10/14 07:57:15;;;;;;;72.93;47.72;;;12.80;99.90;;;;;;4111733;28;20035;-78
2021/10/14 07:59:16;;;;;;;70.80;43.15;;;12.80;99.90;;;;;;4114177;28;20046;-77
2021/10/14 08:01:16;;;;;;;69.97;47.10;;;12.80;99.90;;;;;;4111899;28;20502;-77
2021/10/14 08:03:17;;;;;;;66.57;42.90;;;12.80;99.90;;;;;;4112819;28;20545;-76
2021/10/14 08:05:18;;;;;;;67.32;44.13;;;12.90;99.90;;;;;;4113181;28;20154;-77
2021/10/14 08:07:19;;;;;;;67.82;42.55;;;12.80;99.90;;;;;;4111195;28;20517;-76
2021/10/14 08:09:20;;;;;;;66.05;43.55;;;12.80;99.90;;;;;;4122276;28;20526;-75
2021/10/14 08:11:21;;;;;;;64.22;45.53;;;12.90;99.90;;;;;;4104017;28;20097;-76
2021/10/14 08:13:22;;;;;;;60.22;40.13;;;12.90;99.90;;;;;;4102791;28;20126;-78
2021/10/14 08:15:23;;;;;;;53.85;39.45;;;13.00;99.90;;;;;;4114232;28;20034;-77
2021/10/14 08:17:24;;;;;;;58.92;38.47;;;13.10;99.90;;;;;;4105466;28;20050;-77
2021/10/14 08:19:25;;;;;;;52.75;37.88;;;13.10;99.90;;;;;;4111898;28;20047;-77
2021/10/14 08:21:26;;;;;;;48.95;35.58;;;13.20;99.90;;;;;;4120118;28;20414;-77
2021/10/14 08:23:28;;;;;;;51.92;35.28;;;13.20;99.90;;;;;;4120893;28;20113;-77
2021/10/14 08:25:29;;;;;;;47.90;35.70;;;13.20;99.90;;;;;;4107914;28;20122;-77
2021/10/14 08:27:30;;;;;;;46.33;35.72;;;13.30;99.90;;;;;;4114265;28;20038;-76
2021/10/14 08:29:30;;;;;;;46.47;35.00;;;13.30;99.90;;;;;;4104116;28;20054;-77
2021/10/14 08:31:31;;;;;;;50.17;34.53;;;13.30;99.90;;;;;;4105900;28;20125;-78
2021/10/14 08:33:32;;;;;;;53.80;33.80;;;13.40;99.90;;;;;;4110582;28;20035;-77
2021/10/14 08:35:35;;;;;;;45.53;33.42;;;13.40;99.90;;;;;;4112005;28;20474;-77
2021/10/14 08:37:37;;;;;;;45.22;32.10;;;13.40;99.90;;;;;;4127916;28;20031;-77
2021/10/14 08:39:38;;;;;;;44.20;33.13;;;13.40;99.90;;;;;;4112012;28;20043;-77
2021/10/14 08:41:39;;;;;;;41.05;32.17;;;13.40;99.90;;;;;;4113805;28;20046;-77
2021/10/14 08:43:40;;;;;;;41.65;31.33;;;13.40;99.90;;;;;;4118587;28;20046;-77
2021/10/14 08:45:45;;;;;;;39.58;29.08;;;13.40;99.90;;;;;;4100158;28;20027;-77
2021/10/14 08:47:46;;;;;;;42.78;29.75;;;13.40;99.90;;;;;;4130180;28;20070;-76
2021/10/14 08:49:48;;;;;;;45.97;30.33;;;13.50;99.90;;;;;;4103218;28;20035;-77
2021/10/14 08:51:51;;;;;;;44.80;29.80;;;13.50;99.90;;;;;;4099858;28;20054;-77
2021/10/14 08:53:53;;;;;;;35.45;27.73;;;13.50;99.90;;;;;;4132041;28;20045;-77
2021/10/14 08:55:53;;;;;;;41.90;29.65;;;13.50;99.90;;;;;;4110642;28;20542;-77
2021/10/14 08:57:54;;;;;;;38.08;27.52;;;13.50;99.90;;;;;;4131370;28;20038;-77
2021/10/14 08:59:55;;;;;;;39.40;28.92;;;13.70;99.90;;;;;;4122502;28;20081;-77
2021/10/14 09:02:08;;;;;;;38.33;26.80;;;13.70;99.90;;;;;;4105202;28;20434;-77
2021/10/14 09:04:15;;;;;;;40.33;28.27;;;13.70;99.90;;;;;;4114828;28;20469;-77
2021/10/14 09:06:17;;;;;;;35.33;26.88;;;13.70;99.90;;;;;;4129068;28;20042;-77
2021/10/14 09:08:41;;;;;;;36.25;26.63;;;13.80;99.90;;;;;;4114676;28;20101;-77
2021/10/14 09:10:42;;;;;;;37.40;26.92;;;13.90;99.90;;;;;;4115839;28;20117;-77
2021/10/14 09:12:46;;;;;;;32.63;26.85;;;14.00;99.90;;;;;;4114725;28;20027;-77
2021/10/14 09:15:19;;;;;;;35.10;25.85;;;14.10;99.90;;;;;;4114725;28;20058;-77
2021/10/14 09:17:42;;;;;;;28.80;25.40;;;14.10;99.90;;;;;;4089456;28;20042;-77
2021/10/14 09:19:43;;;;;;;31.65;24.52;;;14.30;99.90;;;;;;4123628;28;20050;-77
2021/10/14 09:21:52;;;;;;;31.20;25.30;;;14.20;99.90;;;;;;4112381;28;20499;-76
2021/10/14 09:23:55;;;;;;;34.03;26.17;;;14.20;99.90;;;;;;4110305;28;20516;-77
2021/10/14 09:25:56;;;;;;;32.55;24.75;;;14.10;99.90;;;;;;4128147;28;20387;-76
2021/10/14 09:28:24;;;;;;;38.00;24.50;;;14.10;99.90;;;;;;4108412;28;20053;-76
2021/10/14 09:30:24;;;;;;;36.60;24.80;;;14.10;99.90;;;;;;4114693;28;20110;-76
2021/10/14 09:32:25;;;;;;;34.90;27.40;;;14.10;99.90;;;;;;4114825;28;20027;-77
2021/10/14 09:34:33;;;;;;;35.08;26.45;;;14.00;99.90;;;;;;4097014;28;20062;-76
2021/10/14 09:36:34;;;;;;;40.08;27.17;;;14.00;99.90;;;;;;4103839;28;20035;-78
2021/10/14 09:38:35;;;;;;;33.83;25.38;;;14.10;99.90;;;;;;4112865;28;20035;-76
2021/10/14 09:40:36;;;;;;;35.70;27.80;;;14.00;99.90;;;;;;4103559;28;20038;-76
2021/10/14 09:42:56;;;;;;;31.77;25.30;;;14.00;99.90;;;;;;4119774;28;20401;-76
2021/10/14 09:44:59;;;;;;;36.65;27.10;;;14.20;99.90;;;;;;4124117;28;20086;-77
2021/10/14 09:47:00;;;;;;;39.28;30.30;;;14.20;99.90;;;;;;4124620;28;20054;-76
2021/10/14 09:49:02;;;;;;;37.92;28.08;;;14.20;99.90;;;;;;4113736;28;20105;-77
2021/10/14 09:51:03;;;;;;;39.05;27.98;;;14.20;99.90;;;;;;4123731;28;20121;-75
2021/10/14 09:53:10;;;;;;;33.58;28.65;;;14.20;99.90;;;;;;4100415;28;20505;-76
2021/10/14 09:55:12;;;;;;;37.10;29.40;;;14.30;99.90;;;;;;4116484;28;20442;-76
2021/10/14 09:57:14;;;;;;;35.30;27.70;;;14.40;99.90;;;;;;4125408;28;20039;-76
2021/10/14 09:59:16;;;;;;;34.40;27.27;;;14.60;99.90;;;;;;4130480;28;20678;-76
2021/10/14 10:01:17;;;;;;;33.92;27.48;;;14.70;99.90;;;;;;4112947;28;20066;-77
2021/10/14 10:03:23;;;;;;;33.22;25.85;;;14.80;99.90;;;;;;4110716;28;20023;-76
2021/10/14 10:05:26;;;;;;;35.22;27.25;;;14.90;99.90;;;;;;4125364;28;20043;-77
2021/10/14 10:07:26;;;;;;;35.08;26.92;;;15.10;99.90;;;;;;4113703;28;20033;-76
2021/10/14 10:09:31;;;;;;;32.58;25.98;;;15.20;99.90;;;;;;4113045;28;20118;-76
2021/10/14 10:11:42;;;;;;;33.55;25.33;;;15.30;99.90;;;;;;4129115;28;20045;-77
2021/10/14 10:13:51;;;;;;;31.30;26.73;;;15.40;99.90;;;;;;4114959;28;20035;-77
2021/10/14 10:15:52;;;;;;;40.80;27.23;;;15.30;99.90;;;;;;4115056;28;20118;-76